createdAt,value
2023-04-17T00:00:12.829Z,101136.06
2023-04-17T00:02:41.337Z,101136.16
2023-04-17T00:05:10.822Z,101145.59
2023-04-17T00:07:39.298Z,101141.78
2023-04-17T00:10:09.346Z,101139.69
2023-04-17T00:12:38.066Z,101146.94
2023-04-17T00:15:06.806Z,101136.00
2023-04-17T00:17:36.540Z,101143.91
2023-04-17T00:20:07.891Z,101140.28
2023-04-17T00:22:36.251Z,101148.28
2023-04-17T00:25:04.727Z,101137.41
2023-04-17T00:27:35.279Z,101135.91
2023-04-17T00:30:03.781Z,101140.06
2023-04-17T00:32:31.788Z,101138.06
2023-04-17T00:35:01.181Z,101134.53
2023-04-17T00:37:29.926Z,101137.03
2023-04-17T00:39:57.966Z,101137.69
2023-04-17T00:42:26.223Z,101134.06
2023-04-17T00:44:54.653Z,101145.22
2023-04-17T00:47:23.370Z,101137.41
2023-04-17T00:49:52.011Z,101137.03
2023-04-17T00:52:29.234Z,101137.12
2023-04-17T00:54:58.857Z,101135.97
2023-04-17T00:57:27.906Z,101136.06
2023-04-17T00:59:57.692Z,101134.56
2023-04-17T01:02:26.203Z,101149.59
2023-04-17T01:04:54.558Z,101141.78
2023-04-17T01:07:24.279Z,101147.28
2023-04-17T01:09:52.263Z,101143.78
2023-04-17T01:12:22.947Z,101143.69
2023-04-17T01:14:51.766Z,101145.19
2023-04-17T01:17:22.484Z,101138.66
2023-04-17T01:19:51.252Z,101137.59
2023-04-17T01:22:20.555Z,101134.72
2023-04-17T01:24:53.926Z,101137.00
2023-04-17T01:27:22.662Z,101141.34
2023-04-17T01:29:50.852Z,101138.91
2023-04-17T01:32:20.007Z,101143.34
2023-04-17T01:34:48.338Z,101137.19
2023-04-17T01:37:16.348Z,101135.84
2023-04-17T01:39:44.958Z,101138.41
2023-04-17T01:42:15.485Z,101137.00
2023-04-17T01:44:43.527Z,101143.19
2023-04-17T01:47:11.456Z,101142.22
2023-04-17T01:49:39.818Z,101140.81
2023-04-17T01:52:08.156Z,101150.59
2023-04-17T01:54:36.600Z,101144.31
2023-04-17T01:57:05.243Z,101147.00
2023-04-17T01:59:34.571Z,101152.56
2023-04-17T02:02:02.691Z,101142.69
2023-04-17T02:04:31.384Z,101142.28
2023-04-17T02:06:59.425Z,101143.56
2023-04-17T02:09:27.678Z,101150.25
2023-04-17T02:11:56.895Z,101149.25
2023-04-17T02:14:25.985Z,101152.00
2023-04-17T02:16:55.866Z,101150.41
2023-04-17T02:19:24.175Z,101153.84
2023-04-17T02:21:52.242Z,101149.41
2023-04-17T02:24:20.374Z,101150.09
2023-04-17T02:26:48.681Z,101153.53
2023-04-17T02:29:16.740Z,101157.72
2023-04-17T02:31:44.994Z,101160.75
2023-04-17T02:34:14.677Z,101156.28
2023-04-17T02:36:42.736Z,101153.84
2023-04-17T02:39:11.219Z,101156.50
2023-04-17T02:41:40.636Z,101152.97
2023-04-17T02:44:09.266Z,101155.44
2023-04-17T02:46:37.260Z,101155.34
2023-04-17T02:49:07.670Z,101150.19
2023-04-17T02:51:37.713Z,101153.53
2023-04-17T02:54:09.287Z,101153.72
2023-04-17T02:56:37.422Z,101157.91
2023-04-17T02:59:05.892Z,101152.66
2023-04-17T03:01:37.650Z,101151.63
2023-04-17T03:04:06.489Z,101154.47
2023-04-17T03:06:34.603Z,101157.81
2023-04-17T03:09:05.364Z,101155.94
2023-04-17T03:11:33.964Z,101166.59
2023-04-17T03:14:01.913Z,101161.84
2023-04-17T03:16:30.071Z,101165.06
2023-04-17T03:18:59.195Z,101168.25
2023-04-17T03:21:27.817Z,101168.50
2023-04-17T03:23:56.183Z,101165.84
2023-04-17T03:26:26.049Z,101162.25
2023-04-17T03:28:54.586Z,101168.38
2023-04-17T03:31:24.517Z,101168.41
2023-04-17T03:33:53.110Z,101167.66
2023-04-17T03:36:21.432Z,101172.47
2023-04-17T03:38:49.518Z,101169.56
2023-04-17T03:41:20.517Z,101173.06
2023-04-17T03:43:50.281Z,101174.12
2023-04-17T03:46:18.804Z,101180.03
2023-04-17T03:48:46.975Z,101176.78
2023-04-17T03:51:16.175Z,101182.25
2023-04-17T03:53:44.733Z,101180.56
2023-04-17T03:56:13.608Z,101184.06
2023-04-17T03:58:42.452Z,101185.53
2023-04-17T04:01:14.751Z,101189.16
2023-04-17T04:03:43.826Z,101186.37
2023-04-17T04:06:12.366Z,101190.19
2023-04-17T04:08:40.519Z,101201.50
2023-04-17T04:11:08.933Z,101191.03
2023-04-17T04:13:37.872Z,101204.00
2023-04-17T04:16:08.056Z,101202.63
2023-04-17T04:18:38.592Z,101205.53
2023-04-17T04:21:07.378Z,101206.50
2023-04-17T04:23:37.673Z,101213.72
2023-04-17T04:26:06.448Z,101213.28
2023-04-17T04:28:34.956Z,101218.59
2023-04-17T04:31:04.422Z,101211.31
2023-04-17T04:33:33.089Z,101210.78
2023-04-17T04:36:02.575Z,101211.22
2023-04-17T04:38:32.471Z,101216.13
2023-04-17T04:41:06.274Z,101208.06
2023-04-17T04:43:35.571Z,101215.09
2023-04-17T04:46:04.796Z,101219.78
2023-04-17T04:48:33.108Z,101227.75
2023-04-17T04:51:02.637Z,101218.44
2023-04-17T04:53:31.336Z,101216.13
2023-04-17T04:55:59.519Z,101231.41
2023-04-17T04:58:29.514Z,101222.72
2023-04-17T05:00:59.839Z,101225.56
2023-04-17T05:03:29.172Z,101233.94
2023-04-17T05:05:57.253Z,101246.59
2023-04-17T05:08:27.934Z,101237.13
2023-04-17T05:10:56.519Z,101244.69
2023-04-17T05:13:27.452Z,101245.72
2023-04-17T05:15:55.928Z,101244.63
2023-04-17T05:18:25.573Z,101242.28
2023-04-17T05:20:53.660Z,101250.44
2023-04-17T05:23:22.980Z,101258.38
2023-04-17T05:25:52.442Z,101258.59
2023-04-17T05:28:20.686Z,101256.78
2023-04-17T05:30:53.662Z,101269.44
2023-04-17T05:33:22.464Z,101260.72
2023-04-17T05:35:51.966Z,101265.47
2023-04-17T05:38:21.635Z,101265.53
2023-04-17T05:40:49.792Z,101270.44
2023-04-17T05:43:19.419Z,101265.75
2023-04-17T05:45:47.768Z,101274.06
2023-04-17T05:48:16.248Z,101274.19
2023-04-17T05:50:44.495Z,101275.09
2023-04-17T05:53:12.545Z,101278.44
2023-04-17T05:55:41.094Z,101284.97
2023-04-17T05:58:23.063Z,101287.84
2023-04-17T06:00:53.526Z,101286.91
2023-04-17T06:03:22.306Z,101276.91
2023-04-17T06:05:51.955Z,101280.72
2023-04-17T06:08:20.169Z,101282.53
2023-04-17T06:10:50.239Z,101285.81
2023-04-17T06:13:18.318Z,101281.63
2023-04-17T06:15:46.730Z,101285.06
2023-04-17T06:18:17.913Z,101287.84
2023-04-17T06:20:46.288Z,101291.13
2023-04-17T06:23:14.571Z,101281.09
2023-04-17T06:25:43.892Z,101284.47
2023-04-17T06:28:11.962Z,101296.03
2023-04-17T06:30:40.518Z,101293.63
2023-04-17T06:33:08.934Z,101304.87
2023-04-17T06:35:38.778Z,101302.06
2023-04-17T06:38:09.097Z,101305.81
2023-04-17T06:40:37.218Z,101305.06
2023-04-17T06:43:06.324Z,101312.19
2023-04-17T06:45:42.097Z,101315.34
2023-04-17T06:48:10.346Z,101311.94
2023-04-17T06:50:41.495Z,101313.62
2023-04-17T06:53:09.500Z,101318.47
2023-04-17T06:55:37.476Z,101321.37
2023-04-17T06:58:07.103Z,101326.38
2023-04-17T07:00:35.156Z,101321.94
2023-04-17T07:03:03.625Z,101316.66
2023-04-17T07:05:32.356Z,101314.41
2023-04-17T07:08:01.696Z,101319.31
2023-04-17T07:10:29.838Z,101321.31
2023-04-17T07:12:58.228Z,101323.28
2023-04-17T07:15:26.773Z,101329.34
2023-04-17T07:17:55.138Z,101335.13
2023-04-17T07:20:23.604Z,101327.75
2023-04-17T07:22:51.659Z,101329.41
2023-04-17T07:25:21.239Z,101323.84
2023-04-17T07:27:49.802Z,101330.72
2023-04-17T07:30:17.998Z,101331.53
2023-04-17T07:32:46.427Z,101328.41
2023-04-17T07:35:15.159Z,101340.03
2023-04-17T07:37:43.190Z,101339.44
2023-04-17T07:40:12.003Z,101333.81
2023-04-17T07:42:41.699Z,101334.13
2023-04-17T07:45:11.326Z,101343.56
2023-04-17T07:47:39.471Z,101353.44
2023-04-17T07:50:09.013Z,101346.75
2023-04-17T07:52:36.927Z,101359.47
2023-04-17T07:55:05.422Z,101352.84
2023-04-17T07:57:33.774Z,101356.16
2023-04-17T08:00:07.073Z,101357.97
2023-04-17T08:02:41.740Z,101366.19
2023-04-17T08:05:11.580Z,101360.69
2023-04-17T08:07:41.177Z,101367.19
2023-04-17T08:10:09.844Z,101372.91
2023-04-17T08:12:38.245Z,101379.13
2023-04-17T08:15:08.779Z,101375.66
2023-04-17T08:17:36.847Z,101379.69
2023-04-17T08:20:11.280Z,101375.16
2023-04-17T08:22:41.120Z,101370.78
2023-04-17T08:25:10.846Z,101370.94
2023-04-17T08:27:39.890Z,101372.56
2023-04-17T08:30:13.300Z,101373.91
2023-04-17T08:32:45.540Z,101373.66
2023-04-17T08:35:15.601Z,101378.16
2023-04-17T08:37:46.798Z,101379.59
2023-04-17T08:40:17.161Z,101376.56
2023-04-17T08:42:47.723Z,101381.19
2023-04-17T08:45:18.432Z,101380.44
2023-04-17T08:47:46.913Z,101383.03
2023-04-17T08:50:17.812Z,101388.44
2023-04-17T08:52:48.268Z,101393.09
2023-04-17T08:55:19.371Z,101388.63
2023-04-17T08:57:58.658Z,101383.59
2023-04-17T09:00:31.199Z,101379.53
2023-04-17T09:03:00.413Z,101379.16
2023-04-17T09:05:33.377Z,101378.44
2023-04-17T09:08:11.266Z,101377.56
2023-04-17T09:10:41.569Z,101381.41
2023-04-17T09:13:10.555Z,101380.13
2023-04-17T09:15:39.997Z,101380.91
2023-04-17T09:18:23.832Z,101378.66
2023-04-17T09:20:52.715Z,101383.44
2023-04-17T09:23:22.820Z,101382.69
2023-04-17T09:26:06.951Z,101381.03
2023-04-17T09:28:36.905Z,101376.47
2023-04-17T09:31:24.451Z,101382.72
2023-04-17T09:33:57.754Z,101388.94
2023-04-17T09:36:27.360Z,101385.87
2023-04-17T09:38:56.031Z,101383.09
2023-04-17T09:41:25.530Z,101377.97
2023-04-17T09:43:55.312Z,101387.59
2023-04-17T09:46:38.238Z,101372.66
2023-04-17T09:49:10.819Z,101386.03
2023-04-17T09:51:39.713Z,101392.28
2023-04-17T09:54:10.121Z,101388.84
2023-04-17T09:56:38.960Z,101386.88
2023-04-17T09:59:07.762Z,101393.63
2023-04-17T10:01:39.981Z,101387.91
2023-04-17T10:04:08.562Z,101384.53
2023-04-17T10:06:37.333Z,101390.28
2023-04-17T10:09:05.864Z,101389.16
2023-04-17T10:11:37.489Z,101387.06
2023-04-17T10:14:11.820Z,101387.78
2023-04-17T10:16:43.727Z,101388.34
2023-04-17T10:19:29.790Z,101382.16
2023-04-17T10:22:41.006Z,101383.31
2023-04-17T10:25:20.483Z,101387.97
2023-04-17T10:27:51.904Z,101383.69
2023-04-17T10:30:22.290Z,101378.91
2023-04-17T10:33:28.377Z,101388.47
2023-04-17T10:35:56.749Z,101380.47
2023-04-17T10:38:36.071Z,101383.41
2023-04-17T10:41:09.264Z,101382.78
2023-04-17T10:43:41.931Z,101382.91
2023-04-17T10:46:12.169Z,101381.91
2023-04-17T10:48:49.827Z,101385.75
2023-04-17T10:51:44.024Z,101384.66
2023-04-17T10:54:15.650Z,101379.16
2023-04-17T10:56:48.166Z,101377.06
2023-04-17T10:59:20.832Z,101384.69
2023-04-17T11:02:01.373Z,101382.69
2023-04-17T11:04:34.046Z,101384.38
2023-04-17T11:07:02.775Z,101379.25
2023-04-17T11:09:30.980Z,101379.06
2023-04-17T11:12:02.799Z,101377.66
2023-04-17T11:14:32.343Z,101385.38
2023-04-17T11:17:02.241Z,101367.47
2023-04-17T11:19:35.818Z,101374.72
2023-04-17T11:22:04.275Z,101374.81
2023-04-17T11:24:33.150Z,101376.06
2023-04-17T11:27:03.386Z,101372.09
2023-04-17T11:29:32.009Z,101370.41
2023-04-17T11:32:00.836Z,101374.16
2023-04-17T11:34:29.161Z,101377.59
2023-04-17T11:37:00.407Z,101381.72
2023-04-17T11:39:30.434Z,101375.53
2023-04-17T11:41:59.031Z,101377.25
2023-04-17T11:44:27.321Z,101383.41
2023-04-17T11:46:56.978Z,101380.03
2023-04-17T11:49:27.375Z,101373.06
2023-04-17T11:51:55.642Z,101372.47
2023-04-17T11:54:28.561Z,101377.75
2023-04-17T11:57:01.827Z,101369.63
2023-04-17T11:59:33.837Z,101374.75
2023-04-17T12:02:03.399Z,101375.19
2023-04-17T12:04:34.328Z,101375.69
2023-04-17T12:07:03.189Z,101373.72
2023-04-17T12:09:33.724Z,101378.16
2023-04-17T12:12:02.743Z,101378.66
2023-04-17T12:14:31.656Z,101365.59
2023-04-17T12:17:00.502Z,101378.84
2023-04-17T12:19:29.765Z,101382.31
2023-04-17T12:21:59.258Z,101376.22
2023-04-17T12:24:28.007Z,101373.91
2023-04-17T12:26:58.780Z,101380.19
2023-04-17T12:29:42.337Z,101376.13
2023-04-17T12:32:12.394Z,101378.41
2023-04-17T12:34:41.580Z,101369.97
2023-04-17T12:37:10.005Z,101363.03
2023-04-17T12:39:38.378Z,101370.22
2023-04-17T12:42:07.778Z,101370.47
2023-04-17T12:44:36.015Z,101370.59
2023-04-17T12:47:04.451Z,101363.47
2023-04-17T12:49:32.484Z,101359.44
2023-04-17T12:52:02.583Z,101367.38
2023-04-17T12:54:32.951Z,101350.97
2023-04-17T12:57:01.529Z,101357.59
2023-04-17T12:59:30.904Z,101365.19
2023-04-17T13:01:59.592Z,101352.47
2023-04-17T13:04:27.891Z,101354.31
2023-04-17T13:06:56.126Z,101358.87
2023-04-17T13:09:24.407Z,101355.47
2023-04-17T13:11:52.456Z,101365.41
2023-04-17T13:14:20.739Z,101365.25
2023-04-17T13:16:50.948Z,101361.50
2023-04-17T13:19:20.031Z,101350.19
2023-04-17T13:21:48.475Z,101358.09
2023-04-17T13:24:16.864Z,101358.53
2023-04-17T13:26:45.067Z,101360.31
2023-04-17T13:29:15.133Z,101363.13
2023-04-17T13:31:44.463Z,101359.06
2023-04-17T13:34:13.831Z,101361.31
2023-04-17T13:36:44.795Z,101361.06
2023-04-17T13:39:13.277Z,101360.84
2023-04-17T13:41:42.169Z,101354.22
2023-04-17T13:44:10.466Z,101355.69
2023-04-17T13:46:38.650Z,101357.41
2023-04-17T13:49:07.530Z,101348.00
2023-04-17T13:51:36.966Z,101347.28
2023-04-17T13:54:05.339Z,101345.09
2023-04-17T13:56:33.750Z,101336.84
2023-04-17T13:59:02.107Z,101341.59
2023-04-17T14:01:30.245Z,101345.63
2023-04-17T14:04:00.540Z,101347.56
2023-04-17T14:06:29.165Z,101341.00
2023-04-17T14:08:59.060Z,101340.22
2023-04-17T14:11:27.660Z,101334.28
2023-04-17T14:13:56.007Z,101333.31
2023-04-17T14:16:24.603Z,101336.75
2023-04-17T14:18:53.087Z,101338.78
2023-04-17T14:21:22.001Z,101339.88
2023-04-17T14:23:51.464Z,101346.13
2023-04-17T14:26:22.279Z,101339.28
2023-04-17T14:28:50.517Z,101340.25
2023-04-17T14:31:18.723Z,101340.88
2023-04-17T14:33:47.400Z,101337.00
2023-04-17T14:36:15.541Z,101335.69
2023-04-17T14:38:44.317Z,101338.75
2023-04-17T14:41:12.719Z,101338.50
2023-04-17T14:43:42.122Z,101330.47
2023-04-17T14:46:10.314Z,101334.87
2023-04-17T14:48:54.054Z,101342.63
2023-04-17T14:51:22.811Z,101330.75
2023-04-17T14:53:53.048Z,101337.50
2023-04-17T14:56:21.710Z,101330.03
2023-04-17T14:58:51.824Z,101329.97
2023-04-17T15:01:19.959Z,101321.00
2023-04-17T15:03:48.920Z,101327.63
2023-04-17T15:06:17.509Z,101323.31
2023-04-17T15:08:46.542Z,101331.66
2023-04-17T15:11:14.903Z,101334.25
2023-04-17T15:13:43.155Z,101333.66
2023-04-17T15:16:12.679Z,101335.16
2023-04-17T15:18:40.768Z,101343.50
2023-04-17T15:21:09.436Z,101334.13
2023-04-17T15:23:38.182Z,101336.16
2023-04-17T15:26:06.538Z,101340.81
2023-04-17T15:28:35.106Z,101343.13
2023-04-17T15:31:03.239Z,101334.06
2023-04-17T15:33:32.730Z,101338.34
2023-04-17T15:36:02.261Z,101338.72
2023-04-17T15:38:30.319Z,101339.78
2023-04-17T15:40:59.066Z,101350.72
2023-04-17T15:43:27.538Z,101344.75
2023-04-17T15:45:55.937Z,101347.41
2023-04-17T15:48:24.023Z,101339.38
2023-04-17T15:50:53.703Z,101348.66
2023-04-17T15:53:21.901Z,101353.19
2023-04-17T15:55:50.011Z,101360.19
2023-04-17T15:58:18.302Z,101351.47
2023-04-17T16:00:47.101Z,101347.62
2023-04-17T16:03:15.947Z,101349.13
2023-04-17T16:05:44.046Z,101350.59
2023-04-17T16:08:13.433Z,101352.00
2023-04-17T16:10:41.684Z,101352.75
2023-04-17T16:13:09.891Z,101348.22
2023-04-17T16:15:37.995Z,101352.31
2023-04-17T16:18:07.375Z,101355.37
2023-04-17T16:20:36.055Z,101357.00
2023-04-17T16:23:04.486Z,101354.69
2023-04-17T16:25:34.163Z,101367.91
2023-04-17T16:28:03.307Z,101357.25
2023-04-17T16:30:31.601Z,101364.19
2023-04-17T16:33:00.017Z,101366.38
2023-04-17T16:35:30.026Z,101369.81
2023-04-17T16:37:58.044Z,101365.97
2023-04-17T16:40:26.736Z,101368.44
2023-04-17T16:42:56.247Z,101377.00
2023-04-17T16:45:24.415Z,101380.66
2023-04-17T16:47:52.833Z,101377.19
2023-04-17T16:50:21.147Z,101376.63
2023-04-17T16:52:50.250Z,101384.62
2023-04-17T16:55:18.762Z,101377.88
2023-04-17T16:57:47.957Z,101380.78
2023-04-17T17:00:18.250Z,101387.03
2023-04-17T17:02:47.015Z,101383.50
2023-04-17T17:05:17.636Z,101387.59
2023-04-17T17:07:45.692Z,101392.50
2023-04-17T17:10:14.092Z,101396.28
2023-04-17T17:12:42.375Z,101399.91
2023-04-17T17:15:11.261Z,101401.91
2023-04-17T17:17:41.094Z,101404.69
2023-04-17T17:20:11.418Z,101407.00
2023-04-17T17:22:39.786Z,101407.38
2023-04-17T17:25:08.954Z,101410.78
2023-04-17T17:27:37.035Z,101410.34
2023-04-17T17:30:06.021Z,101416.19
2023-04-17T17:32:34.146Z,101411.91
2023-04-17T17:35:03.849Z,101421.09
2023-04-17T17:37:32.183Z,101424.06
2023-04-17T17:40:00.816Z,101427.72
2023-04-17T17:42:28.962Z,101431.62
2023-04-17T17:44:57.397Z,101436.84
2023-04-17T17:47:25.485Z,101438.50
2023-04-17T17:49:53.655Z,101436.28
2023-04-17T17:52:23.393Z,101444.59
2023-04-17T17:54:51.639Z,101438.97
2023-04-17T17:57:19.668Z,101439.94
2023-04-17T17:59:48.091Z,101448.00
2023-04-17T18:02:16.197Z,101447.34
2023-04-17T18:04:44.686Z,101457.53
2023-04-17T18:07:12.801Z,101452.38
2023-04-17T18:09:42.136Z,101454.63
2023-04-17T18:12:11.746Z,101456.06
2023-04-17T18:14:39.755Z,101461.66
2023-04-17T18:17:07.851Z,101456.31
2023-04-17T18:19:40.749Z,101455.38
2023-04-17T18:22:09.018Z,101462.81
2023-04-17T18:24:37.508Z,101459.38
2023-04-17T18:27:07.031Z,101464.91
2023-04-17T18:29:35.206Z,101469.72
2023-04-17T18:32:03.745Z,101472.28
2023-04-17T18:34:31.793Z,101475.81
2023-04-17T18:37:01.849Z,101475.44
2023-04-17T18:39:30.509Z,101481.78
2023-04-17T18:41:58.597Z,101481.78
2023-04-17T18:44:28.132Z,101489.88
2023-04-17T18:46:56.491Z,101493.28
2023-04-17T18:49:24.490Z,101495.09
2023-04-17T18:51:52.600Z,101498.25
2023-04-17T18:54:20.974Z,101501.09
2023-04-17T18:56:49.119Z,101502.53
2023-04-17T18:59:17.133Z,101507.19
2023-04-17T19:01:46.920Z,101509.66
2023-04-17T19:04:15.449Z,101505.16
2023-04-17T19:06:43.949Z,101504.69
2023-04-17T19:09:12.734Z,101508.06
2023-04-17T19:11:40.945Z,101504.53
2023-04-17T19:14:09.214Z,101507.97
2023-04-17T19:16:38.292Z,101501.78
2023-04-17T19:19:08.464Z,101508.91
2023-04-17T19:21:36.915Z,101509.53
2023-04-17T19:24:05.771Z,101505.00
2023-04-17T19:26:33.864Z,101511.09
2023-04-17T19:29:03.141Z,101511.00
2023-04-17T19:31:32.649Z,101508.25
2023-04-17T19:34:01.671Z,101500.12
2023-04-17T19:36:31.363Z,101497.78
2023-04-17T19:38:59.885Z,101506.78
2023-04-17T19:41:29.063Z,101506.12
2023-04-17T19:43:57.349Z,101504.87
2023-04-17T19:46:27.491Z,101509.56
2023-04-17T19:48:55.637Z,101508.53
2023-04-17T19:51:23.682Z,101520.59
2023-04-17T19:53:54.212Z,101518.00
2023-04-17T19:56:23.601Z,101509.25
2023-04-17T19:58:51.946Z,101514.00
2023-04-17T20:01:20.101Z,101520.31
2023-04-17T20:03:48.724Z,101521.63
2023-04-17T20:06:16.833Z,101523.94
2023-04-17T20:08:45.135Z,101523.94
2023-04-17T20:11:17.260Z,101525.75
2023-04-17T20:13:48.405Z,101523.84
2023-04-17T20:16:16.868Z,101526.47
2023-04-17T20:18:45.715Z,101522.78
2023-04-17T20:21:14.493Z,101515.81
2023-04-17T20:23:43.539Z,101521.28
2023-04-17T20:26:12.074Z,101519.47
2023-04-17T20:28:41.654Z,101521.75
2023-04-17T20:31:10.181Z,101520.84
2023-04-17T20:33:38.383Z,101519.09
2023-04-17T20:36:07.155Z,101519.62
2023-04-17T20:38:35.558Z,101518.88
2023-04-17T20:41:06.473Z,101524.97
2023-04-17T20:43:34.514Z,101519.56
2023-04-17T20:46:05.978Z,101518.37
2023-04-17T20:48:34.121Z,101521.34
2023-04-17T20:51:05.384Z,101521.28
2023-04-17T20:53:33.554Z,101525.22
2023-04-17T20:56:01.674Z,101523.41
2023-04-17T20:58:30.119Z,101518.63
2023-04-17T21:01:01.719Z,101521.53
2023-04-17T21:03:32.216Z,101520.59
2023-04-17T21:06:00.466Z,101520.41
2023-04-17T21:08:28.906Z,101514.41
2023-04-17T21:10:57.286Z,101519.72
2023-04-17T21:13:26.345Z,101523.31
2023-04-17T21:15:55.100Z,101515.34
2023-04-17T21:18:23.538Z,101519.06
2023-04-17T21:20:56.178Z,101518.16
2023-04-17T21:23:25.480Z,101517.78
2023-04-17T21:25:55.127Z,101530.03
2023-04-17T21:28:23.344Z,101518.44
2023-04-17T21:30:53.629Z,101524.13
2023-04-17T21:33:21.705Z,101528.09
2023-04-17T21:35:49.790Z,101520.75
2023-04-17T21:38:19.626Z,101517.38
2023-04-17T21:40:51.304Z,101517.12
2023-04-17T21:43:20.056Z,101517.06
2023-04-17T21:45:48.339Z,101511.72
2023-04-17T21:48:16.810Z,101519.34
2023-04-17T21:50:45.320Z,101516.59
2023-04-17T21:53:13.453Z,101509.69
2023-04-17T21:55:46.145Z,101511.81
2023-04-17T21:58:14.640Z,101513.53
2023-04-17T22:00:45.224Z,101518.78
2023-04-17T22:03:29.061Z,101521.13
2023-04-17T22:05:58.042Z,101519.97
2023-04-17T22:08:26.357Z,101521.13
2023-04-17T22:10:55.880Z,101528.87
2023-04-17T22:13:23.882Z,101515.00
2023-04-17T22:15:52.620Z,101519.03
2023-04-17T22:18:21.333Z,101518.37
2023-04-17T22:20:49.573Z,101518.00
2023-04-17T22:23:17.900Z,101529.09
2023-04-17T22:25:45.947Z,101520.34
2023-04-17T22:28:15.747Z,101518.06
2023-04-17T22:30:45.054Z,101526.69
2023-04-17T22:33:13.298Z,101523.31
2023-04-17T22:35:44.395Z,101522.50
2023-04-17T22:38:12.529Z,101519.62
2023-04-17T22:40:41.372Z,101528.41
2023-04-17T22:43:09.836Z,101524.78
2023-04-17T22:45:39.192Z,101517.53
2023-04-17T22:48:07.433Z,101525.81
2023-04-17T22:50:39.715Z,101519.56
2023-04-17T22:53:07.623Z,101521.94
2023-04-17T22:55:36.348Z,101521.44
2023-04-17T22:58:04.965Z,101529.41
2023-04-17T23:00:33.522Z,101525.53
2023-04-17T23:03:03.416Z,101527.28
2023-04-17T23:05:31.800Z,101530.97
2023-04-17T23:07:59.867Z,101527.28
2023-04-17T23:10:28.288Z,101533.03
2023-04-17T23:12:56.390Z,101529.94
2023-04-17T23:15:24.825Z,101528.00
2023-04-17T23:17:53.385Z,101524.25
2023-04-17T23:20:24.903Z,101522.59
2023-04-17T23:22:53.842Z,101520.34
2023-04-17T23:25:22.005Z,101513.88
2023-04-17T23:27:50.308Z,101520.19
2023-04-17T23:30:19.109Z,101519.72
2023-04-17T23:32:47.632Z,101518.53
2023-04-17T23:35:15.876Z,101518.25
2023-04-17T23:37:46.252Z,101518.16
2023-04-17T23:40:14.695Z,101516.06
2023-04-17T23:42:42.930Z,101510.34
2023-04-17T23:45:11.917Z,101508.13
2023-04-17T23:47:39.915Z,101513.12
2023-04-17T23:50:08.815Z,101505.09
2023-04-17T23:52:37.086Z,101506.09
2023-04-17T23:55:07.967Z,101506.75
2023-04-17T23:57:37.890Z,101508.37
